Ackerly, Texas
Current Conditions -  °F | °C
As of 8:35 PM on Saturday 25 Oct 2014 (Local Time) from KBPG Reporting Station
Clear Clear  
Wind Chill: 73°   Ceiling: Unl
Heat Index: 73°   Visibility: 10mi
Dew Point: 49°   Wind: 9mph
Humidity: 42%   Direction: 120°ESE
Pressure: 30.11"   Gusts: NA
Location:  32.53°N, 101.72°W
Report Text: KBPG 260135Z AUTO 12008KT 10SM CLR 23/09 A3011 RMK AO2 T02290093
Loading
Personal Weather Stations






























Interactive Weather Map New forecast layout! Learn more

10-Day Weather Forecast

Advertisements
Track Severe Weather on mobile